sensor_id;sensor_type;location;lat;lon;timestamp;P1;durP1;ratioP1;P2;durP2;ratioP2
49139;SDS011;34959;49.310;8.646;2023-05-10T00:01:51;1.55;;;0.80;;
49139;SDS011;34959;49.310;8.646;2023-05-10T00:04:17;3.47;;;0.90;;
49139;SDS011;34959;49.310;8.646;2023-05-10T00:06:42;1.40;;;0.82;;
49139;SDS011;34959;49.310;8.646;2023-05-10T00:09:07;2.10;;;0.90;;
49139;SDS011;34959;49.310;8.646;2023-05-10T00:11:33;1.35;;;0.95;;
49139;SDS011;34959;49.310;8.646;2023-05-10T00:13:58;4.82;;;1.05;;
49139;SDS011;34959;49.310;8.646;2023-05-10T00:16:24;1.55;;;0.85;;
49139;SDS011;34959;49.310;8.646;2023-05-10T00:18:49;2.05;;;1.05;;
49139;SDS011;34959;49.310;8.646;2023-05-10T00:21:14;2.90;;;0.90;;
49139;SDS011;34959;49.310;8.646;2023-05-10T00:23:40;3.80;;;0.77;;
49139;SDS011;34959;49.310;8.646;2023-05-10T00:26:05;2.72;;;0.93;;
49139;SDS011;34959;49.310;8.646;2023-05-10T00:28:31;1.50;;;0.90;;
49139;SDS011;34959;49.310;8.646;2023-05-10T00:30:56;1.92;;;0.80;;
49139;SDS011;34959;49.310;8.646;2023-05-10T00:33:22;1.17;;;0.73;;
49139;SDS011;34959;49.310;8.646;2023-05-10T00:35:47;4.90;;;1.08;;
49139;SDS011;34959;49.310;8.646;2023-05-10T00:38:12;1.42;;;0.90;;
49139;SDS011;34959;49.310;8.646;2023-05-10T00:40:38;1.38;;;0.90;;
49139;SDS011;34959;49.310;8.646;2023-05-10T00:43:03;2.15;;;0.77;;
49139;SDS011;34959;49.310;8.646;2023-05-10T00:45:32;2.05;;;0.93;;
49139;SDS011;34959;49.310;8.646;2023-05-10T00:47:59;2.00;;;0.80;;
49139;SDS011;34959;49.310;8.646;2023-05-10T00:50:26;0.98;;;0.73;;
49139;SDS011;34959;49.310;8.646;2023-05-10T00:52:54;2.25;;;1.00;;
49139;SDS011;34959;49.310;8.646;2023-05-10T00:55:20;3.95;;;1.00;;
49139;SDS011;34959;49.310;8.646;2023-05-10T00:57:45;2.25;;;1.00;;
49139;SDS011;34959;49.310;8.646;2023-05-10T01:00:12;1.98;;;0.98;;
49139;SDS011;34959;49.310;8.646;2023-05-10T01:02:42;1.17;;;0.80;;
49139;SDS011;34959;49.310;8.646;2023-05-10T01:05:08;1.52;;;0.80;;
49139;SDS011;34959;49.310;8.646;2023-05-10T01:07:33;2.47;;;0.93;;
49139;SDS011;34959;49.310;8.646;2023-05-10T01:09:59;1.35;;;0.90;;
49139;SDS011;34959;49.310;8.646;2023-05-10T01:12:25;1.73;;;0.98;;
49139;SDS011;34959;49.310;8.646;2023-05-10T01:14:50;1.80;;;0.75;;
49139;SDS011;34959;49.310;8.646;2023-05-10T01:17:16;1.10;;;0.80;;
49139;SDS011;34959;49.310;8.646;2023-05-10T01:19:42;1.60;;;0.88;;
49139;SDS011;34959;49.310;8.646;2023-05-10T01:24:52;0.80;;;0.73;;
49139;SDS011;34959;49.310;8.646;2023-05-10T01:30:03;1.38;;;0.70;;
49139;SDS011;34959;49.310;8.646;2023-05-10T01:32:56;2.25;;;0.95;;
49139;SDS011;34959;49.310;8.646;2023-05-10T01:37:56;1.35;;;0.90;;
49139;SDS011;34959;49.310;8.646;2023-05-10T01:40:32;1.25;;;0.85;;
49139;SDS011;34959;49.310;8.646;2023-05-10T01:43:02;1.50;;;0.70;;
49139;SDS011;34959;49.310;8.646;2023-05-10T01:48:08;1.27;;;0.77;;
49139;SDS011;34959;49.310;8.646;2023-05-10T01:50:35;1.40;;;0.88;;
49139;SDS011;34959;49.310;8.646;2023-05-10T01:53:09;1.00;;;0.80;;
49139;SDS011;34959;49.310;8.646;2023-05-10T01:55:39;2.78;;;0.85;;
49139;SDS011;34959;49.310;8.646;2023-05-10T02:03:36;1.13;;;0.80;;
49139;SDS011;34959;49.310;8.646;2023-05-10T02:06:03;1.30;;;0.90;;
49139;SDS011;34959;49.310;8.646;2023-05-10T02:08:29;1.25;;;0.95;;
49139;SDS011;34959;49.310;8.646;2023-05-10T02:10:56;0.93;;;0.70;;
49139;SDS011;34959;49.310;8.646;2023-05-10T02:13:21;2.17;;;0.70;;
49139;SDS011;34959;49.310;8.646;2023-05-10T02:15:48;1.10;;;0.70;;
49139;SDS011;34959;49.310;8.646;2023-05-10T02:18:15;1.42;;;0.73;;
49139;SDS011;34959;49.310;8.646;2023-05-10T02:20:41;1.30;;;0.80;;
49139;SDS011;34959;49.310;8.646;2023-05-10T02:23:08;2.97;;;0.88;;
49139;SDS011;34959;49.310;8.646;2023-05-10T02:25:34;0.95;;;0.80;;
49139;SDS011;34959;49.310;8.646;2023-05-10T02:28:01;2.28;;;0.90;;
49139;SDS011;34959;49.310;8.646;2023-05-10T02:30:27;1.25;;;0.73;;
49139;SDS011;34959;49.310;8.646;2023-05-10T02:32:54;4.15;;;1.17;;
49139;SDS011;34959;49.310;8.646;2023-05-10T02:35:19;2.50;;;0.88;;
49139;SDS011;34959;49.310;8.646;2023-05-10T02:37:46;2.00;;;0.73;;
49139;SDS011;34959;49.310;8.646;2023-05-10T02:40:12;0.93;;;0.73;;
49139;SDS011;34959;49.310;8.646;2023-05-10T02:42:38;1.08;;;0.68;;
49139;SDS011;34959;49.310;8.646;2023-05-10T02:45:08;1.30;;;0.77;;
49139;SDS011;34959;49.310;8.646;2023-05-10T02:47:37;0.73;;;0.60;;
49139;SDS011;34959;49.310;8.646;2023-05-10T02:50:02;1.55;;;0.70;;
49139;SDS011;34959;49.310;8.646;2023-05-10T02:52:36;1.08;;;0.70;;
49139;SDS011;34959;49.310;8.646;2023-05-10T02:55:05;1.48;;;0.82;;
49139;SDS011;34959;49.310;8.646;2023-05-10T02:57:34;2.35;;;0.88;;
49139;SDS011;34959;49.310;8.646;2023-05-10T03:00:00;1.10;;;0.70;;
49139;SDS011;34959;49.310;8.646;2023-05-10T03:02:27;2.03;;;0.93;;
49139;SDS011;34959;49.310;8.646;2023-05-10T03:04:53;1.10;;;0.60;;
49139;SDS011;34959;49.310;8.646;2023-05-10T03:07:18;1.25;;;0.70;;
49139;SDS011;34959;49.310;8.646;2023-05-10T03:09:46;0.75;;;0.60;;
49139;SDS011;34959;49.310;8.646;2023-05-10T03:17:55;0.88;;;0.80;;
49139;SDS011;34959;49.310;8.646;2023-05-10T03:20:29;1.05;;;0.60;;
49139;SDS011;34959;49.310;8.646;2023-05-10T03:23:00;1.25;;;0.70;;
49139;SDS011;34959;49.310;8.646;2023-05-10T03:25:29;1.35;;;0.80;;
49139;SDS011;34959;49.310;8.646;2023-05-10T03:27:56;0.93;;;0.70;;
49139;SDS011;34959;49.310;8.646;2023-05-10T03:30:22;1.17;;;0.68;;
49139;SDS011;34959;49.310;8.646;2023-05-10T03:32:47;0.68;;;0.63;;
49139;SDS011;34959;49.310;8.646;2023-05-10T03:35:12;1.17;;;0.77;;
49139;SDS011;34959;49.310;8.646;2023-05-10T03:37:39;2.20;;;0.80;;
49139;SDS011;34959;49.310;8.646;2023-05-10T03:40:05;0.85;;;0.70;;
49139;SDS011;34959;49.310;8.646;2023-05-10T03:42:30;1.52;;;0.60;;
49139;SDS011;34959;49.310;8.646;2023-05-10T03:44:56;1.45;;;0.80;;
49139;SDS011;34959;49.310;8.646;2023-05-10T03:47:21;0.93;;;0.70;;
49139;SDS011;34959;49.310;8.646;2023-05-10T03:49:47;1.27;;;0.80;;
49139;SDS011;34959;49.310;8.646;2023-05-10T03:52:12;1.55;;;0.85;;
49139;SDS011;34959;49.310;8.646;2023-05-10T03:54:37;0.77;;;0.60;;
49139;SDS011;34959;49.310;8.646;2023-05-10T03:57:03;2.00;;;0.60;;
49139;SDS011;34959;49.310;8.646;2023-05-10T03:59:28;2.40;;;0.73;;
49139;SDS011;34959;49.310;8.646;2023-05-10T04:01:54;1.73;;;0.70;;
49139;SDS011;34959;49.310;8.646;2023-05-10T04:04:19;0.85;;;0.68;;
49139;SDS011;34959;49.310;8.646;2023-05-10T04:06:46;1.83;;;0.70;;
49139;SDS011;34959;49.310;8.646;2023-05-10T04:09:11;0.77;;;0.60;;
49139;SDS011;34959;49.310;8.646;2023-05-10T04:11:37;1.48;;;0.80;;
49139;SDS011;34959;49.310;8.646;2023-05-10T04:14:02;3.17;;;0.88;;
49139;SDS011;34959;49.310;8.646;2023-05-10T04:16:28;0.88;;;0.50;;
49139;SDS011;34959;49.310;8.646;2023-05-10T04:18:53;2.47;;;0.73;;
49139;SDS011;34959;49.310;8.646;2023-05-10T04:21:18;1.13;;;0.70;;
49139;SDS011;34959;49.310;8.646;2023-05-10T04:23:44;1.10;;;0.70;;
49139;SDS011;34959;49.310;8.646;2023-05-10T04:26:09;2.00;;;0.60;;
49139;SDS011;34959;49.310;8.646;2023-05-10T04:28:35;4.72;;;0.80;;
49139;SDS011;34959;49.310;8.646;2023-05-10T04:31:01;1.63;;;0.65;;
49139;SDS011;34959;49.310;8.646;2023-05-10T04:33:29;0.77;;;0.50;;
49139;SDS011;34959;49.310;8.646;2023-05-10T04:35:55;2.15;;;0.52;;
49139;SDS011;34959;49.310;8.646;2023-05-10T04:38:20;1.48;;;0.70;;
49139;SDS011;34959;49.310;8.646;2023-05-10T04:40:46;0.50;;;0.50;;
49139;SDS011;34959;49.310;8.646;2023-05-10T04:43:11;1.00;;;0.63;;
49139;SDS011;34959;49.310;8.646;2023-05-10T04:45:37;0.82;;;0.70;;
49139;SDS011;34959;49.310;8.646;2023-05-10T04:48:02;0.82;;;0.70;;
49139;SDS011;34959;49.310;8.646;2023-05-10T04:50:27;1.90;;;0.47;;
49139;SDS011;34959;49.310;8.646;2023-05-10T04:52:53;1.30;;;0.63;;
49139;SDS011;34959;49.310;8.646;2023-05-10T04:55:18;3.08;;;0.52;;
49139;SDS011;34959;49.310;8.646;2023-05-10T04:57:44;2.88;;;0.60;;
49139;SDS011;34959;49.310;8.646;2023-05-10T05:00:10;1.20;;;0.70;;
49139;SDS011;34959;49.310;8.646;2023-05-10T05:02:37;1.58;;;0.80;;
49139;SDS011;34959;49.310;8.646;2023-05-10T05:05:02;0.70;;;0.50;;
49139;SDS011;34959;49.310;8.646;2023-05-10T05:07:28;1.83;;;0.60;;
49139;SDS011;34959;49.310;8.646;2023-05-10T05:09:53;1.25;;;0.60;;
49139;SDS011;34959;49.310;8.646;2023-05-10T05:12:18;3.33;;;0.65;;
49139;SDS011;34959;49.310;8.646;2023-05-10T05:14:44;0.77;;;0.43;;
49139;SDS011;34959;49.310;8.646;2023-05-10T05:17:09;0.95;;;0.73;;
49139;SDS011;34959;49.310;8.646;2023-05-10T05:19:35;1.25;;;0.85;;
49139;SDS011;34959;49.310;8.646;2023-05-10T05:22:00;0.90;;;0.60;;
49139;SDS011;34959;49.310;8.646;2023-05-10T05:24:26;0.57;;;0.50;;
49139;SDS011;34959;49.310;8.646;2023-05-10T05:26:51;1.80;;;0.63;;
49139;SDS011;34959;49.310;8.646;2023-05-10T05:29:17;0.85;;;0.60;;
49139;SDS011;34959;49.310;8.646;2023-05-10T05:31:42;1.08;;;0.70;;
49139;SDS011;34959;49.310;8.646;2023-05-10T05:34:07;0.60;;;0.57;;
49139;SDS011;34959;49.310;8.646;2023-05-10T05:36:35;1.67;;;0.73;;
49139;SDS011;34959;49.310;8.646;2023-05-10T05:39:03;2.05;;;0.60;;
49139;SDS011;34959;49.310;8.646;2023-05-10T05:41:28;1.08;;;0.70;;
49139;SDS011;34959;49.310;8.646;2023-05-10T05:43:54;1.75;;;0.63;;
49139;SDS011;34959;49.310;8.646;2023-05-10T05:46:19;1.02;;;0.55;;
49139;SDS011;34959;49.310;8.646;2023-05-10T05:48:44;3.40;;;0.77;;
49139;SDS011;34959;49.310;8.646;2023-05-10T05:51:10;2.95;;;0.70;;
49139;SDS011;34959;49.310;8.646;2023-05-10T05:53:35;1.98;;;0.95;;
49139;SDS011;34959;49.310;8.646;2023-05-10T05:56:01;1.30;;;0.73;;
49139;SDS011;34959;49.310;8.646;2023-05-10T05:58:26;1.30;;;0.70;;
49139;SDS011;34959;49.310;8.646;2023-05-10T06:00:53;0.90;;;0.65;;
49139;SDS011;34959;49.310;8.646;2023-05-10T06:03:18;2.28;;;0.55;;
49139;SDS011;34959;49.310;8.646;2023-05-10T06:05:44;2.58;;;0.93;;
49139;SDS011;34959;49.310;8.646;2023-05-10T06:08:09;3.70;;;0.70;;
49139;SDS011;34959;49.310;8.646;2023-05-10T06:10:35;0.82;;;0.60;;
49139;SDS011;34959;49.310;8.646;2023-05-10T06:13:00;2.78;;;0.88;;
49139;SDS011;34959;49.310;8.646;2023-05-10T06:15:26;1.20;;;0.57;;
49139;SDS011;34959;49.310;8.646;2023-05-10T06:17:52;1.17;;;0.50;;
49139;SDS011;34959;49.310;8.646;2023-05-10T06:20:17;3.30;;;0.50;;
49139;SDS011;34959;49.310;8.646;2023-05-10T06:22:43;1.23;;;0.50;;
49139;SDS011;34959;49.310;8.646;2023-05-10T06:25:09;4.25;;;0.70;;
49139;SDS011;34959;49.310;8.646;2023-05-10T06:27:35;3.08;;;0.88;;
49139;SDS011;34959;49.310;8.646;2023-05-10T06:30:00;1.50;;;0.70;;
49139;SDS011;34959;49.310;8.646;2023-05-10T06:32:26;1.13;;;0.60;;
49139;SDS011;34959;49.310;8.646;2023-05-10T06:34:51;0.63;;;0.45;;
49139;SDS011;34959;49.310;8.646;2023-05-10T06:37:17;0.68;;;0.40;;
49139;SDS011;34959;49.310;8.646;2023-05-10T06:39:42;1.80;;;0.60;;
49139;SDS011;34959;49.310;8.646;2023-05-10T06:42:08;0.98;;;0.50;;
49139;SDS011;34959;49.310;8.646;2023-05-10T06:44:34;1.25;;;0.60;;
49139;SDS011;34959;49.310;8.646;2023-05-10T06:46:59;2.38;;;0.60;;
49139;SDS011;34959;49.310;8.646;2023-05-10T06:49:24;0.85;;;0.70;;
49139;SDS011;34959;49.310;8.646;2023-05-10T06:51:50;0.88;;;0.60;;
49139;SDS011;34959;49.310;8.646;2023-05-10T06:54:15;1.30;;;0.63;;
49139;SDS011;34959;49.310;8.646;2023-05-10T06:56:41;1.27;;;0.60;;
49139;SDS011;34959;49.310;8.646;2023-05-10T06:59:06;1.92;;;0.50;;
49139;SDS011;34959;49.310;8.646;2023-05-10T07:01:32;2.65;;;0.60;;
49139;SDS011;34959;49.310;8.646;2023-05-10T07:03:57;0.77;;;0.52;;
49139;SDS011;34959;49.310;8.646;2023-05-10T07:06:23;0.68;;;0.55;;
49139;SDS011;34959;49.310;8.646;2023-05-10T07:08:48;1.20;;;0.60;;
49139;SDS011;34959;49.310;8.646;2023-05-10T07:11:13;1.58;;;0.70;;
49139;SDS011;34959;49.310;8.646;2023-05-10T07:13:39;1.08;;;0.60;;
49139;SDS011;34959;49.310;8.646;2023-05-10T07:16:06;2.25;;;0.70;;
49139;SDS011;34959;49.310;8.646;2023-05-10T07:18:33;1.40;;;0.68;;
49139;SDS011;34959;49.310;8.646;2023-05-10T07:20:58;2.20;;;0.70;;
49139;SDS011;34959;49.310;8.646;2023-05-10T07:23:24;1.45;;;0.40;;
49139;SDS011;34959;49.310;8.646;2023-05-10T07:25:52;2.30;;;0.73;;
49139;SDS011;34959;49.310;8.646;2023-05-10T07:28:17;3.00;;;0.73;;
49139;SDS011;34959;49.310;8.646;2023-05-10T07:30:43;2.95;;;0.65;;
49139;SDS011;34959;49.310;8.646;2023-05-10T07:33:09;0.60;;;0.50;;
49139;SDS011;34959;49.310;8.646;2023-05-10T07:35:36;2.05;;;0.68;;
49139;SDS011;34959;49.310;8.646;2023-05-10T07:38:02;2.65;;;0.68;;
49139;SDS011;34959;49.310;8.646;2023-05-10T07:40:27;0.70;;;0.40;;
49139;SDS011;34959;49.310;8.646;2023-05-10T07:42:53;1.20;;;0.60;;
49139;SDS011;34959;49.310;8.646;2023-05-10T07:45:19;1.33;;;0.70;;
49139;SDS011;34959;49.310;8.646;2023-05-10T07:47:44;1.08;;;0.63;;
49139;SDS011;34959;49.310;8.646;2023-05-10T07:50:10;2.22;;;0.50;;
49139;SDS011;34959;49.310;8.646;2023-05-10T07:52:35;1.15;;;0.60;;
49139;SDS011;34959;49.310;8.646;2023-05-10T07:55:01;2.55;;;0.60;;
49139;SDS011;34959;49.310;8.646;2023-05-10T07:57:26;1.42;;;1.08;;
49139;SDS011;34959;49.310;8.646;2023-05-10T07:59:52;2.17;;;1.15;;
49139;SDS011;34959;49.310;8.646;2023-05-10T08:02:17;2.10;;;1.20;;
49139;SDS011;34959;49.310;8.646;2023-05-10T08:04:42;2.53;;;1.02;;
49139;SDS011;34959;49.310;8.646;2023-05-10T08:07:08;1.38;;;0.80;;
49139;SDS011;34959;49.310;8.646;2023-05-10T08:09:33;1.42;;;0.98;;
49139;SDS011;34959;49.310;8.646;2023-05-10T08:11:58;1.45;;;0.70;;
49139;SDS011;34959;49.310;8.646;2023-05-10T08:14:25;2.10;;;0.88;;
49139;SDS011;34959;49.310;8.646;2023-05-10T08:16:50;1.90;;;0.73;;
49139;SDS011;34959;49.310;8.646;2023-05-10T08:19:16;3.30;;;0.70;;
49139;SDS011;34959;49.310;8.646;2023-05-10T08:21:44;2.05;;;0.70;;
49139;SDS011;34959;49.310;8.646;2023-05-10T08:24:10;1.83;;;0.90;;
49139;SDS011;34959;49.310;8.646;2023-05-10T08:26:35;1.23;;;0.70;;
49139;SDS011;34959;49.310;8.646;2023-05-10T08:29:01;1.58;;;0.90;;
49139;SDS011;34959;49.310;8.646;2023-05-10T08:31:26;3.85;;;0.73;;
49139;SDS011;34959;49.310;8.646;2023-05-10T08:33:52;1.45;;;0.65;;
49139;SDS011;34959;49.310;8.646;2023-05-10T08:36:18;1.75;;;0.63;;
49139;SDS011;34959;49.310;8.646;2023-05-10T08:38:46;1.30;;;0.60;;
49139;SDS011;34959;49.310;8.646;2023-05-10T08:41:14;1.95;;;0.63;;
49139;SDS011;34959;49.310;8.646;2023-05-10T08:43:40;3.22;;;0.80;;
49139;SDS011;34959;49.310;8.646;2023-05-10T08:46:11;3.60;;;0.70;;
49139;SDS011;34959;49.310;8.646;2023-05-10T08:48:41;2.75;;;0.60;;
49139;SDS011;34959;49.310;8.646;2023-05-10T08:51:07;2.22;;;0.60;;
49139;SDS011;34959;49.310;8.646;2023-05-10T08:53:34;5.15;;;0.70;;
49139;SDS011;34959;49.310;8.646;2023-05-10T08:56:01;0.80;;;0.45;;
49139;SDS011;34959;49.310;8.646;2023-05-10T08:58:27;6.03;;;0.98;;
49139;SDS011;34959;49.310;8.646;2023-05-10T09:00:53;3.00;;;0.90;;
49139;SDS011;34959;49.310;8.646;2023-05-10T09:03:18;2.05;;;0.70;;
49139;SDS011;34959;49.310;8.646;2023-05-10T09:05:43;2.20;;;0.63;;
49139;SDS011;34959;49.310;8.646;2023-05-10T09:08:09;2.53;;;0.77;;
49139;SDS011;34959;49.310;8.646;2023-05-10T09:10:36;1.70;;;0.60;;
49139;SDS011;34959;49.310;8.646;2023-05-10T09:13:04;1.50;;;0.68;;
49139;SDS011;34959;49.310;8.646;2023-05-10T09:15:30;2.00;;;0.82;;
49139;SDS011;34959;49.310;8.646;2023-05-10T09:17:55;4.30;;;0.63;;
49139;SDS011;34959;49.310;8.646;2023-05-10T09:20:23;1.15;;;0.70;;
49139;SDS011;34959;49.310;8.646;2023-05-10T09:22:48;3.33;;;0.60;;
49139;SDS011;34959;49.310;8.646;2023-05-10T09:25:15;0.73;;;0.45;;
49139;SDS011;34959;49.310;8.646;2023-05-10T09:27:41;1.60;;;0.70;;
49139;SDS011;34959;49.310;8.646;2023-05-10T09:30:10;1.00;;;0.60;;
49139;SDS011;34959;49.310;8.646;2023-05-10T09:32:39;1.48;;;0.50;;
49139;SDS011;34959;49.310;8.646;2023-05-10T09:35:06;1.48;;;0.70;;
49139;SDS011;34959;49.310;8.646;2023-05-10T09:37:42;1.50;;;0.65;;
49139;SDS011;34959;49.310;8.646;2023-05-10T09:40:12;1.92;;;0.80;;
49139;SDS011;34959;49.310;8.646;2023-05-10T09:42:42;3.95;;;0.63;;
49139;SDS011;34959;49.310;8.646;2023-05-10T09:45:16;2.22;;;0.90;;
49139;SDS011;34959;49.310;8.646;2023-05-10T09:47:41;0.80;;;0.47;;
49139;SDS011;34959;49.310;8.646;2023-05-10T09:50:07;1.85;;;0.60;;
49139;SDS011;34959;49.310;8.646;2023-05-10T09:52:52;2.55;;;0.77;;
49139;SDS011;34959;49.310;8.646;2023-05-10T09:55:22;0.90;;;0.50;;
49139;SDS011;34959;49.310;8.646;2023-05-10T09:57:49;1.30;;;0.55;;
49139;SDS011;34959;49.310;8.646;2023-05-10T10:00:19;1.45;;;0.60;;
49139;SDS011;34959;49.310;8.646;2023-05-10T10:02:45;1.10;;;0.52;;
49139;SDS011;34959;49.310;8.646;2023-05-10T10:05:12;2.88;;;0.50;;
49139;SDS011;34959;49.310;8.646;2023-05-10T10:07:38;1.33;;;0.70;;
49139;SDS011;34959;49.310;8.646;2023-05-10T10:10:03;2.58;;;0.90;;
49139;SDS011;34959;49.310;8.646;2023-05-10T10:12:30;1.30;;;0.70;;
49139;SDS011;34959;49.310;8.646;2023-05-10T10:14:55;1.50;;;0.82;;
49139;SDS011;34959;49.310;8.646;2023-05-10T10:17:21;2.80;;;0.90;;
49139;SDS011;34959;49.310;8.646;2023-05-10T10:19:46;2.65;;;1.27;;
49139;SDS011;34959;49.310;8.646;2023-05-10T10:22:13;1.25;;;0.80;;
49139;SDS011;34959;49.310;8.646;2023-05-10T10:24:38;4.13;;;0.90;;
49139;SDS011;34959;49.310;8.646;2023-05-10T10:35:52;1.92;;;0.70;;
49139;SDS011;34959;49.310;8.646;2023-05-10T10:38:18;2.60;;;0.68;;
49139;SDS011;34959;49.310;8.646;2023-05-10T10:40:44;1.35;;;0.73;;
49139;SDS011;34959;49.310;8.646;2023-05-10T10:43:25;1.83;;;0.80;;
49139;SDS011;34959;49.310;8.646;2023-05-10T10:46:11;2.33;;;0.70;;
49139;SDS011;34959;49.310;8.646;2023-05-10T10:48:47;1.65;;;0.70;;
49139;SDS011;34959;49.310;8.646;2023-05-10T10:51:14;1.13;;;0.70;;
49139;SDS011;34959;49.310;8.646;2023-05-10T10:53:40;1.35;;;0.60;;
49139;SDS011;34959;49.310;8.646;2023-05-10T10:56:12;1.88;;;0.65;;
49139;SDS011;34959;49.310;8.646;2023-05-10T10:58:40;2.03;;;0.73;;
49139;SDS011;34959;49.310;8.646;2023-05-10T11:01:18;2.03;;;0.70;;
49139;SDS011;34959;49.310;8.646;2023-05-10T11:06:39;1.30;;;0.70;;
49139;SDS011;34959;49.310;8.646;2023-05-10T11:09:06;3.78;;;0.80;;
49139;SDS011;34959;49.310;8.646;2023-05-10T11:11:35;2.53;;;0.90;;
49139;SDS011;34959;49.310;8.646;2023-05-10T11:14:05;2.78;;;0.70;;
49139;SDS011;34959;49.310;8.646;2023-05-10T11:16:41;1.73;;;0.70;;
49139;SDS011;34959;49.310;8.646;2023-05-10T11:19:08;0.80;;;0.55;;
49139;SDS011;34959;49.310;8.646;2023-05-10T11:21:44;1.25;;;0.60;;
49139;SDS011;34959;49.310;8.646;2023-05-10T11:26:53;1.87;;;0.60;;
49139;SDS011;34959;49.310;8.646;2023-05-10T11:29:19;0.95;;;0.60;;
49139;SDS011;34959;49.310;8.646;2023-05-10T11:31:45;2.05;;;0.50;;
49139;SDS011;34959;49.310;8.646;2023-05-10T11:34:12;1.95;;;0.60;;
49139;SDS011;34959;49.310;8.646;2023-05-10T11:36:50;3.10;;;0.80;;
49139;SDS011;34959;49.310;8.646;2023-05-10T11:39:16;2.30;;;0.65;;
49139;SDS011;34959;49.310;8.646;2023-05-10T11:41:42;1.20;;;0.50;;
49139;SDS011;34959;49.310;8.646;2023-05-10T11:44:08;2.72;;;0.73;;
49139;SDS011;34959;49.310;8.646;2023-05-10T11:46:34;2.25;;;0.60;;
49139;SDS011;34959;49.310;8.646;2023-05-10T11:49:00;1.58;;;0.40;;
49139;SDS011;34959;49.310;8.646;2023-05-10T11:51:26;1.10;;;0.52;;
49139;SDS011;34959;49.310;8.646;2023-05-10T11:53:53;1.42;;;0.60;;
49139;SDS011;34959;49.310;8.646;2023-05-10T11:56:19;1.08;;;0.50;;
49139;SDS011;34959;49.310;8.646;2023-05-10T11:58:51;2.55;;;0.50;;
49139;SDS011;34959;49.310;8.646;2023-05-10T12:01:18;1.90;;;0.47;;
49139;SDS011;34959;49.310;8.646;2023-05-10T12:03:43;1.95;;;0.60;;
49139;SDS011;34959;49.310;8.646;2023-05-10T12:06:09;1.50;;;0.73;;
49139;SDS011;34959;49.310;8.646;2023-05-10T12:08:34;1.35;;;0.40;;
49139;SDS011;34959;49.310;8.646;2023-05-10T12:11:04;0.85;;;0.50;;
49139;SDS011;34959;49.310;8.646;2023-05-10T12:13:37;1.05;;;0.50;;
49139;SDS011;34959;49.310;8.646;2023-05-10T12:16:14;1.17;;;0.52;;
49139;SDS011;34959;49.310;8.646;2023-05-10T12:18:41;1.30;;;0.55;;
49139;SDS011;34959;49.310;8.646;2023-05-10T12:21:09;1.25;;;0.47;;
49139;SDS011;34959;49.310;8.646;2023-05-10T12:23:35;0.63;;;0.40;;
49139;SDS011;34959;49.310;8.646;2023-05-10T12:26:04;2.70;;;0.63;;
49139;SDS011;34959;49.310;8.646;2023-05-10T12:28:30;0.93;;;0.40;;
49139;SDS011;34959;49.310;8.646;2023-05-10T12:30:57;0.88;;;0.47;;
49139;SDS011;34959;49.310;8.646;2023-05-10T12:33:24;1.35;;;0.40;;
49139;SDS011;34959;49.310;8.646;2023-05-10T12:35:50;1.70;;;0.50;;
49139;SDS011;34959;49.310;8.646;2023-05-10T12:38:32;1.33;;;0.50;;
49139;SDS011;34959;49.310;8.646;2023-05-10T12:41:03;1.05;;;0.50;;
49139;SDS011;34959;49.310;8.646;2023-05-10T12:43:32;1.77;;;0.50;;
49139;SDS011;34959;49.310;8.646;2023-05-10T12:46:03;1.35;;;0.40;;
49139;SDS011;34959;49.310;8.646;2023-05-10T12:48:32;0.93;;;0.70;;
49139;SDS011;34959;49.310;8.646;2023-05-10T12:50:59;0.70;;;0.30;;
49139;SDS011;34959;49.310;8.646;2023-05-10T12:53:25;1.30;;;0.47;;
49139;SDS011;34959;49.310;8.646;2023-05-10T12:55:50;2.10;;;0.52;;
49139;SDS011;34959;49.310;8.646;2023-05-10T12:58:16;2.00;;;0.50;;
49139;SDS011;34959;49.310;8.646;2023-05-10T13:00:41;1.85;;;0.60;;
49139;SDS011;34959;49.310;8.646;2023-05-10T13:03:07;2.95;;;0.68;;
49139;SDS011;34959;49.310;8.646;2023-05-10T13:05:33;1.25;;;0.50;;
49139;SDS011;34959;49.310;8.646;2023-05-10T13:07:58;2.60;;;0.50;;
49139;SDS011;34959;49.310;8.646;2023-05-10T13:10:24;4.85;;;0.50;;
49139;SDS011;34959;49.310;8.646;2023-05-10T13:12:50;7.43;;;0.60;;
49139;SDS011;34959;49.310;8.646;2023-05-10T13:15:15;5.18;;;0.70;;
49139;SDS011;34959;49.310;8.646;2023-05-10T13:17:41;2.75;;;0.50;;
49139;SDS011;34959;49.310;8.646;2023-05-10T13:20:07;5.75;;;0.60;;
49139;SDS011;34959;49.310;8.646;2023-05-10T13:22:34;1.02;;;0.43;;
49139;SDS011;34959;49.310;8.646;2023-05-10T13:25:00;3.30;;;0.77;;
49139;SDS011;34959;49.310;8.646;2023-05-10T13:27:26;4.55;;;0.82;;
49139;SDS011;34959;49.310;8.646;2023-05-10T13:29:51;0.90;;;0.50;;
49139;SDS011;34959;49.310;8.646;2023-05-10T13:32:17;2.90;;;0.47;;
49139;SDS011;34959;49.310;8.646;2023-05-10T13:34:42;2.42;;;0.55;;
49139;SDS011;34959;49.310;8.646;2023-05-10T13:37:07;3.10;;;0.50;;
49139;SDS011;34959;49.310;8.646;2023-05-10T13:39:33;0.98;;;0.40;;
49139;SDS011;34959;49.310;8.646;2023-05-10T13:41:59;2.10;;;0.60;;
49139;SDS011;34959;49.310;8.646;2023-05-10T13:44:25;1.45;;;0.40;;
49139;SDS011;34959;49.310;8.646;2023-05-10T13:46:50;2.08;;;0.73;;
49139;SDS011;34959;49.310;8.646;2023-05-10T13:49:16;2.40;;;0.52;;
49139;SDS011;34959;49.310;8.646;2023-05-10T13:51:42;2.38;;;0.68;;
49139;SDS011;34959;49.310;8.646;2023-05-10T13:54:08;1.08;;;0.40;;
49139;SDS011;34959;49.310;8.646;2023-05-10T13:56:34;2.78;;;0.50;;
49139;SDS011;34959;49.310;8.646;2023-05-10T13:58:59;0.80;;;0.40;;
49139;SDS011;34959;49.310;8.646;2023-05-10T14:01:25;0.88;;;0.40;;
49139;SDS011;34959;49.310;8.646;2023-05-10T14:03:50;1.60;;;0.60;;
49139;SDS011;34959;49.310;8.646;2023-05-10T14:06:16;1.42;;;0.52;;
49139;SDS011;34959;49.310;8.646;2023-05-10T14:08:42;3.08;;;0.50;;
49139;SDS011;34959;49.310;8.646;2023-05-10T14:11:07;1.10;;;0.50;;
49139;SDS011;34959;49.310;8.646;2023-05-10T14:13:33;1.33;;;0.40;;
49139;SDS011;34959;49.310;8.646;2023-05-10T14:15:58;2.03;;;0.40;;
49139;SDS011;34959;49.310;8.646;2023-05-10T14:18:26;2.15;;;0.60;;
49139;SDS011;34959;49.310;8.646;2023-05-10T14:20:52;1.38;;;0.60;;
49139;SDS011;34959;49.310;8.646;2023-05-10T14:23:17;0.63;;;0.40;;
49139;SDS011;34959;49.310;8.646;2023-05-10T14:25:44;0.85;;;0.30;;
49139;SDS011;34959;49.310;8.646;2023-05-10T14:28:10;0.93;;;0.52;;
49139;SDS011;34959;49.310;8.646;2023-05-10T14:30:36;3.60;;;0.30;;
49139;SDS011;34959;49.310;8.646;2023-05-10T14:33:02;1.17;;;0.55;;
49139;SDS011;34959;49.310;8.646;2023-05-10T14:35:27;0.88;;;0.40;;
49139;SDS011;34959;49.310;8.646;2023-05-10T14:37:53;3.03;;;0.50;;
49139;SDS011;34959;49.310;8.646;2023-05-10T14:40:19;1.25;;;0.50;;
49139;SDS011;34959;49.310;8.646;2023-05-10T14:42:44;2.60;;;0.45;;
49139;SDS011;34959;49.310;8.646;2023-05-10T14:45:10;2.15;;;0.30;;
49139;SDS011;34959;49.310;8.646;2023-05-10T14:47:36;0.93;;;0.35;;
49139;SDS011;34959;49.310;8.646;2023-05-10T14:50:01;0.70;;;0.20;;
49139;SDS011;34959;49.310;8.646;2023-05-10T14:52:27;0.88;;;0.30;;
49139;SDS011;34959;49.310;8.646;2023-05-10T14:54:52;0.68;;;0.30;;
49139;SDS011;34959;49.310;8.646;2023-05-10T14:57:18;1.48;;;0.30;;
49139;SDS011;34959;49.310;8.646;2023-05-10T14:59:44;3.15;;;0.30;;
49139;SDS011;34959;49.310;8.646;2023-05-10T15:02:09;0.38;;;0.20;;
49139;SDS011;34959;49.310;8.646;2023-05-10T15:04:35;1.15;;;0.30;;
49139;SDS011;34959;49.310;8.646;2023-05-10T15:07:00;1.38;;;0.50;;
49139;SDS011;34959;49.310;8.646;2023-05-10T15:09:26;1.38;;;0.35;;
49139;SDS011;34959;49.310;8.646;2023-05-10T15:11:53;1.65;;;0.28;;
49139;SDS011;34959;49.310;8.646;2023-05-10T15:14:18;0.68;;;0.40;;
49139;SDS011;34959;49.310;8.646;2023-05-10T15:16:44;0.90;;;0.50;;
49139;SDS011;34959;49.310;8.646;2023-05-10T15:19:09;1.83;;;0.38;;
49139;SDS011;34959;49.310;8.646;2023-05-10T15:21:34;2.30;;;0.40;;